Αρχική σελίδα
METAR-TAF:

METAR-TAF

Αεροδρόμια :

Σάο Πάολο, Σάο Πάολο, Βραζιλία

γεωγραφικό πλάτος: 23-31S, γεωγραφικό μήκος: 046-38W, υψόμετρο: 722 μ

Παρών καιρός

Η αναφορά έγινε 57 λεπτά πριν, στις 11:00 UTC
Άνεμος 2 kt από Α/NA
Θερμοκρασία 17°C
Υγρασία 72%
Πίεση 1024 hPa
Ορατότητα 10 χλμ και άνω
Δεν υπάρχουν νέφη με βάση κάτω από τα 1500 μ. και δεν υπάρχουν νέφη σωρειτομελανίτες.

METAR: SBMT 151100Z 12002KT CAVOK 17/12 Q1024

Χρόνος: 08:57 (11:57 UTC)


TAF: λείπει

Μετεωρολογικές αναφορές και προγνώσεις για περισσότερα από 4000 αεροδρόμια (δελτία METAR και TAF).

Οι διαθέσιμοι σταθμοί απεικονίζονται στο χάρτη με κίτρινες και κόκκινες κουκκίδες.

Μετακινήστε το ποντίκι πάνω από τις κουκκίδες για να δείτε το όνομα του σταθμού.

Στη συνέχεια, κάντε κλικ για να δείτε τις μετεωρολογικές αναφορές και τις προγνώσεις καιρού.

Για να αλλάξετε το χάρτη: κάντε κλικ στα πράσινα κουμπιά με τον μαύρο σταυρό για να ζουμάρετε, στο πράσινο κουμπί με την παύλα για να αφαιρέσετε το ζουμ ή στα πράσινα βέλη για να αντιπαραβάλλετε χάρτες.


METAR-TAF: